Time;durP1;ratioP1;P1;durP2;ratioP2;P2;SDS_P1;SDS_P2;PMS_P1;PMS_P2;Temp;Humidity;BMP_temperature;BMP_pressure;BME280_temperature;BME280_humidity;BME280_pressure;Samples;Min_cycle;Max_cycle;Signal;HPM_P1;HPM_P2
2020/12/22 00:00:24;;;;;;;3.50;3.20;;;9.10;99.90;;;;;;5077098;28;21226;-89
2020/12/22 00:02:50;;;;;;;4.10;3.70;;;9.20;99.90;;;;;;5090807;28;21456;-89
2020/12/22 00:05:22;;;;;;;4.80;4.40;;;9.50;99.90;;;;;;5090342;28;20627;-88
2020/12/22 00:07:49;;;;;;;4.13;3.73;;;9.50;99.90;;;;;;5093801;28;20611;-90
2020/12/22 00:10:16;;;;;;;2.97;2.70;;;9.60;99.90;;;;;;5088563;28;21042;-90
2020/12/22 00:12:43;;;;;;;2.03;1.87;;;9.60;99.90;;;;;;5087277;28;20621;-89
2020/12/22 00:15:10;;;;;;;2.30;2.10;;;9.80;99.90;;;;;;5104660;28;20632;-90
2020/12/22 00:17:37;;;;;;;2.13;2.03;;;10.00;99.90;;;;;;5100683;28;20621;-90
2020/12/22 00:20:04;;;;;;;2.80;2.13;;;10.10;99.90;;;;;;5085260;28;20651;-90
2020/12/22 00:22:30;;;;;;;1.70;1.60;;;10.20;99.90;;;;;;5097890;28;20659;-90
2020/12/22 00:24:57;;;;;;;1.97;1.77;;;10.30;99.90;;;;;;5094904;28;20683;-90
2020/12/22 00:27:24;;;;;;;1.87;1.77;;;10.30;99.90;;;;;;5093967;28;20622;-89
2020/12/22 00:29:50;;;;;;;1.63;1.53;;;10.30;99.90;;;;;;5092791;28;20660;-89
2020/12/22 00:32:17;;;;;;;1.40;1.30;;;10.20;99.90;;;;;;5086370;28;20630;-90
2020/12/22 00:34:45;;;;;;;2.20;1.57;;;10.10;99.90;;;;;;5099279;28;21240;-90
2020/12/22 00:37:12;;;;;;;1.53;1.43;;;10.30;99.90;;;;;;5086869;28;20620;-89
2020/12/22 00:39:38;;;;;;;1.40;1.20;;;10.30;99.90;;;;;;5082867;28;20691;-89
2020/12/22 00:42:05;;;;;;;1.77;1.60;;;10.30;99.90;;;;;;5089096;28;20656;-89
2020/12/22 00:44:32;;;;;;;2.03;1.53;;;10.20;99.90;;;;;;5099234;28;20630;-89
2020/12/22 00:46:59;;;;;;;1.57;1.47;;;10.20;99.90;;;;;;5087541;28;20659;-89
2020/12/22 00:49:26;;;;;;;2.37;1.57;;;10.20;99.90;;;;;;5084658;28;20812;-89
2020/12/22 00:51:53;;;;;;;1.80;1.70;;;10.10;99.90;;;;;;5115464;28;20750;-88
2020/12/22 00:54:20;;;;;;;2.97;1.50;;;10.10;99.90;;;;;;5107418;28;20629;-88
2020/12/22 00:56:48;;;;;;;1.70;1.60;;;10.00;99.90;;;;;;5088099;28;20636;-89
2020/12/22 00:59:15;;;;;;;1.67;1.57;;;10.10;99.90;;;;;;5087881;28;21070;-87
2020/12/22 01:01:41;;;;;;;1.50;1.40;;;10.10;99.90;;;;;;5090193;28;20629;-88
2020/12/22 01:04:08;;;;;;;1.70;1.60;;;10.10;99.90;;;;;;5092974;28;20638;-89
2020/12/22 01:06:37;;;;;;;1.90;1.73;;;10.10;99.90;;;;;;5093529;28;20621;-88
2020/12/22 01:09:04;;;;;;;1.30;1.20;;;10.20;99.90;;;;;;5088598;28;20605;-89
2020/12/22 01:11:33;;;;;;;1.27;1.00;;;10.20;99.90;;;;;;5081508;28;20655;-89
2020/12/22 01:14:01;;;;;;;1.20;1.10;;;10.20;99.90;;;;;;5083500;28;20628;-89
2020/12/22 01:16:28;;;;;;;1.47;1.17;;;10.30;99.90;;;;;;5089846;28;20632;-89
2020/12/22 01:18:55;;;;;;;1.47;1.07;;;10.40;99.90;;;;;;5079352;28;20638;-89
2020/12/22 01:21:22;;;;;;;5.33;1.00;;;10.60;99.90;;;;;;5086672;28;20676;-88
2020/12/22 01:23:49;;;;;;;1.37;1.00;;;10.60;99.90;;;;;;5090890;28;20636;-89
2020/12/22 01:26:21;;;;;;;1.00;0.90;;;10.70;99.90;;;;;;5076166;28;20608;-89
2020/12/22 01:28:47;;;;;;;1.00;0.80;;;10.70;99.90;;;;;;5092733;28;20666;-89
2020/12/22 01:31:21;;;;;;;1.10;0.90;;;10.80;99.90;;;;;;5088666;28;20646;-90
2020/12/22 01:33:52;;;;;;;0.80;0.80;;;10.80;99.90;;;;;;5085087;28;20698;-89
2020/12/22 01:36:18;;;;;;;1.73;1.00;;;10.80;99.90;;;;;;5089987;28;20624;-89
2020/12/22 01:38:44;;;;;;;0.87;0.70;;;10.90;99.90;;;;;;5090853;28;20630;-89
2020/12/22 01:41:12;;;;;;;1.00;0.90;;;10.90;99.90;;;;;;5091485;28;20671;-88
2020/12/22 01:43:40;;;;;;;1.10;0.70;;;11.00;99.90;;;;;;5094148;28;20627;-89
2020/12/22 01:46:07;;;;;;;0.77;0.57;;;11.00;99.90;;;;;;5095855;28;20984;-89
2020/12/22 01:48:37;;;;;;;2.00;0.87;;;11.00;99.90;;;;;;5088783;28;21028;-89
2020/12/22 01:51:07;;;;;;;0.80;0.70;;;11.10;99.90;;;;;;5094340;28;20662;-89
2020/12/22 01:53:33;;;;;;;1.10;1.00;;;11.10;99.90;;;;;;5094024;28;20615;-89
2020/12/22 01:56:01;;;;;;;0.73;0.73;;;11.10;99.90;;;;;;5091338;28;20666;-89
2020/12/22 01:58:32;;;;;;;1.80;0.43;;;11.10;99.90;;;;;;5092566;28;20710;-91
2020/12/22 02:00:59;;;;;;;0.60;0.43;;;11.10;99.90;;;;;;5102359;28;21083;-91
2020/12/22 02:03:25;;;;;;;0.50;0.40;;;11.20;99.90;;;;;;5088318;28;20644;-91
2020/12/22 02:05:52;;;;;;;0.73;0.73;;;11.10;99.90;;;;;;5092243;28;20631;-92
2020/12/22 02:08:19;;;;;;;0.70;0.70;;;11.10;99.90;;;;;;5087244;28;20705;-90
2020/12/22 02:10:50;;;;;;;0.70;0.60;;;11.10;99.90;;;;;;5093161;28;20653;-92
2020/12/22 02:13:16;;;;;;;0.73;0.73;;;11.10;99.90;;;;;;5091115;28;20633;-91
2020/12/22 02:15:45;;;;;;;1.10;0.60;;;11.20;99.90;;;;;;5089428;28;20686;-91
2020/12/22 02:18:11;;;;;;;0.60;0.50;;;11.20;99.90;;;;;;5091826;28;20622;-90
2020/12/22 02:20:40;;;;;;;0.60;0.60;;;11.30;99.90;;;;;;5096149;28;20671;-88
2020/12/22 02:23:07;;;;;;;1.60;0.50;;;11.30;99.90;;;;;;5093076;28;20671;-89
2020/12/22 02:25:34;;;;;;;0.80;0.50;;;11.30;99.90;;;;;;5105057;28;20633;-89
2020/12/22 02:28:00;;;;;;;0.50;0.40;;;11.30;99.90;;;;;;5099663;28;20623;-89
2020/12/22 02:30:26;;;;;;;1.27;0.40;;;11.30;99.90;;;;;;5114227;28;20712;-89
2020/12/22 02:32:53;;;;;;;0.60;0.40;;;11.30;99.90;;;;;;5109402;28;20627;-91
2020/12/22 02:35:19;;;;;;;0.50;0.50;;;11.40;99.90;;;;;;5104546;28;20625;-88
2020/12/22 02:37:45;;;;;;;0.40;0.30;;;11.40;99.90;;;;;;5111759;28;20926;-89
2020/12/22 02:40:12;;;;;;;0.80;0.50;;;11.40;99.90;;;;;;5101383;28;20653;-89
2020/12/22 02:42:40;;;;;;;0.50;0.40;;;11.40;99.90;;;;;;5102406;28;20690;-89
2020/12/22 02:45:06;;;;;;;0.60;0.43;;;11.50;99.90;;;;;;5085417;28;20702;-90
2020/12/22 02:47:33;;;;;;;0.47;0.37;;;11.50;99.90;;;;;;5092742;28;20643;-90
2020/12/22 02:49:59;;;;;;;0.50;0.50;;;11.50;99.90;;;;;;5090261;28;20661;-90
2020/12/22 02:52:26;;;;;;;0.50;0.43;;;11.50;99.90;;;;;;5090664;28;20677;-89
2020/12/22 02:54:54;;;;;;;0.40;0.30;;;11.60;99.90;;;;;;5085052;28;20643;-89
2020/12/22 02:57:21;;;;;;;0.50;0.30;;;11.60;99.90;;;;;;5079430;28;20628;-90
2020/12/22 02:59:48;;;;;;;0.50;0.40;;;11.60;99.90;;;;;;5086622;28;20996;-89
2020/12/22 03:02:15;;;;;;;1.70;0.40;;;11.60;99.90;;;;;;5086623;28;20673;-90
2020/12/22 03:04:42;;;;;;;0.50;0.40;;;11.70;99.90;;;;;;5086008;28;20623;-88
2020/12/22 03:07:10;;;;;;;0.60;0.40;;;11.70;99.90;;;;;;5094636;28;20635;-89
2020/12/22 03:09:39;;;;;;;0.87;0.40;;;11.70;99.90;;;;;;5094370;28;20648;-88
2020/12/22 03:12:05;;;;;;;0.67;0.40;;;11.70;99.90;;;;;;5087624;28;21028;-89
2020/12/22 03:14:32;;;;;;;1.43;0.30;;;11.80;99.90;;;;;;5092070;28;20657;-89
2020/12/22 03:16:58;;;;;;;0.70;0.40;;;11.80;99.90;;;;;;5090670;28;21015;-90
2020/12/22 03:19:25;;;;;;;0.60;0.40;;;11.90;99.90;;;;;;5090187;28;20635;-89
2020/12/22 03:21:53;;;;;;;0.50;0.40;;;12.00;99.90;;;;;;5091925;28;20718;-89
2020/12/22 03:24:19;;;;;;;0.93;0.50;;;12.00;99.90;;;;;;5092177;28;20621;-90
2020/12/22 03:26:46;;;;;;;0.57;0.37;;;11.90;99.90;;;;;;5094869;28;21354;-91
2020/12/22 03:29:12;;;;;;;0.50;0.30;;;11.90;99.90;;;;;;5081677;28;20639;-90
2020/12/22 03:31:39;;;;;;;1.37;0.30;;;12.00;99.90;;;;;;5089407;28;20982;-89
2020/12/22 03:34:06;;;;;;;0.43;0.30;;;11.90;99.90;;;;;;5083293;28;20603;-89
2020/12/22 03:36:32;;;;;;;0.50;0.30;;;12.00;99.90;;;;;;5091214;28;20627;-90
2020/12/22 03:38:58;;;;;;;0.60;0.30;;;12.00;99.90;;;;;;5085059;28;20639;-90
2020/12/22 03:41:25;;;;;;;0.40;0.30;;;12.00;99.90;;;;;;5081864;28;21129;-90
2020/12/22 03:43:51;;;;;;;1.07;0.30;;;12.00;99.90;;;;;;5088948;28;20635;-90
2020/12/22 03:46:18;;;;;;;0.50;0.40;;;12.00;99.90;;;;;;5092532;28;20646;-90
2020/12/22 03:48:45;;;;;;;0.47;0.33;;;12.20;99.90;;;;;;5079430;28;21173;-91
2020/12/22 03:51:11;;;;;;;0.60;0.30;;;12.20;99.90;;;;;;5087215;28;21237;-90
2020/12/22 03:53:38;;;;;;;0.40;0.30;;;12.10;99.90;;;;;;5093805;28;20631;-90
2020/12/22 03:56:06;;;;;;;0.70;0.30;;;12.10;99.90;;;;;;5090405;28;20646;-90
2020/12/22 03:58:32;;;;;;;0.40;0.30;;;12.10;99.90;;;;;;5088138;28;20628;-90
2020/12/22 04:00:59;;;;;;;0.70;0.30;;;12.10;99.90;;;;;;5077144;28;20667;-91
2020/12/22 04:03:26;;;;;;;0.60;0.30;;;12.00;99.90;;;;;;5087667;28;20637;-89
2020/12/22 04:05:53;;;;;;;0.50;0.30;;;12.00;99.90;;;;;;5092876;28;21108;-88
2020/12/22 04:08:19;;;;;;;0.50;0.30;;;12.10;99.90;;;;;;5087564;28;20628;-89
2020/12/22 04:10:46;;;;;;;0.40;0.40;;;12.20;99.90;;;;;;5088297;28;20643;-89
2020/12/22 04:13:12;;;;;;;0.40;0.30;;;12.10;99.90;;;;;;5099310;28;20625;-90
2020/12/22 04:15:38;;;;;;;0.40;0.30;;;12.00;99.90;;;;;;5105880;28;20616;-88
2020/12/22 04:18:05;;;;;;;1.33;0.30;;;12.00;99.90;;;;;;5098033;28;20625;-88
2020/12/22 04:20:31;;;;;;;0.40;0.30;;;12.10;99.90;;;;;;5095493;28;20648;-88
2020/12/22 04:22:58;;;;;;;1.70;0.40;;;12.10;99.90;;;;;;5085408;28;20721;-88
2020/12/22 04:25:24;;;;;;;0.43;0.30;;;12.20;99.90;;;;;;5087359;28;20656;-88
2020/12/22 04:27:51;;;;;;;0.50;0.30;;;12.10;99.90;;;;;;5083475;28;20644;-87
2020/12/22 04:30:18;;;;;;;1.17;0.30;;;12.10;99.90;;;;;;5081761;28;20648;-87
2020/12/22 04:32:44;;;;;;;0.40;0.30;;;12.10;99.90;;;;;;5084912;28;20631;-87
2020/12/22 04:35:12;;;;;;;0.70;0.40;;;12.20;99.90;;;;;;5093699;28;20623;-87
2020/12/22 04:37:40;;;;;;;0.40;0.30;;;12.20;99.90;;;;;;5083990;28;20611;-88
2020/12/22 04:40:07;;;;;;;1.27;0.30;;;12.20;99.90;;;;;;5087094;28;20643;-88
2020/12/22 04:42:34;;;;;;;0.70;0.40;;;12.20;99.90;;;;;;5084967;28;20663;-87
2020/12/22 04:45:01;;;;;;;1.77;0.30;;;12.30;99.90;;;;;;5087120;28;20644;-88
2020/12/22 04:47:30;;;;;;;1.50;1.40;;;12.30;99.90;;;;;;5081893;28;20638;-87
2020/12/22 04:50:02;;;;;;;0.40;0.30;;;12.20;99.90;;;;;;5081179;28;20668;-88
2020/12/22 04:52:31;;;;;;;0.50;0.30;;;12.20;99.90;;;;;;5081623;28;20609;-89
2020/12/22 04:54:58;;;;;;;0.50;0.50;;;12.30;99.90;;;;;;5085685;28;20611;-88
2020/12/22 04:57:32;;;;;;;2.60;0.30;;;12.30;99.90;;;;;;5076923;28;20625;-88
2020/12/22 04:59:59;;;;;;;0.40;0.30;;;12.20;99.90;;;;;;5083701;28;20644;-88
2020/12/22 05:02:28;;;;;;;0.40;0.33;;;12.20;99.90;;;;;;5081397;28;20656;-88
2020/12/22 05:04:54;;;;;;;0.40;0.30;;;12.30;99.90;;;;;;5084310;28;20660;-88
2020/12/22 05:07:21;;;;;;;1.43;0.30;;;12.30;99.90;;;;;;5081360;28;20724;-87
2020/12/22 05:09:47;;;;;;;0.40;0.30;;;12.30;99.90;;;;;;5078279;28;20675;-87
2020/12/22 05:12:14;;;;;;;0.40;0.30;;;12.30;99.90;;;;;;5090156;28;20629;-88
2020/12/22 05:14:42;;;;;;;0.70;0.30;;;12.30;99.90;;;;;;5078999;28;20643;-88
2020/12/22 05:17:13;;;;;;;0.50;0.40;;;12.30;99.90;;;;;;5085225;28;20630;-89
2020/12/22 05:19:41;;;;;;;0.93;0.50;;;12.30;99.90;;;;;;5081245;28;20968;-88
2020/12/22 05:22:09;;;;;;;0.50;0.30;;;12.30;99.90;;;;;;5077545;28;20676;-88
2020/12/22 05:24:35;;;;;;;0.40;0.30;;;12.30;99.90;;;;;;5091767;28;20625;-88
2020/12/22 05:27:02;;;;;;;1.03;0.50;;;12.40;99.90;;;;;;5102774;28;20692;-88
2020/12/22 05:29:29;;;;;;;0.50;0.40;;;12.40;99.90;;;;;;5093122;28;21066;-88
2020/12/22 05:31:57;;;;;;;0.60;0.60;;;12.40;99.90;;;;;;5098024;27;20679;-88
2020/12/22 05:34:27;;;;;;;0.80;0.40;;;12.40;99.90;;;;;;5095656;28;20627;-88
2020/12/22 05:36:58;;;;;;;0.50;0.30;;;12.50;99.90;;;;;;5107685;28;20705;-88
2020/12/22 05:39:26;;;;;;;0.40;0.27;;;12.40;99.90;;;;;;5102778;28;20631;-87
2020/12/22 05:41:53;;;;;;;0.60;0.50;;;12.50;99.90;;;;;;5086909;28;20675;-88
2020/12/22 05:44:26;;;;;;;0.70;0.37;;;12.40;99.90;;;;;;5096485;28;20632;-89
2020/12/22 05:46:53;;;;;;;0.50;0.40;;;12.40;99.90;;;;;;5098175;28;20996;-88
2020/12/22 05:49:22;;;;;;;1.37;0.30;;;12.40;99.90;;;;;;5105985;28;20817;-89
2020/12/22 05:51:49;;;;;;;0.40;0.30;;;12.50;99.90;;;;;;5100054;28;20638;-88
2020/12/22 05:54:17;;;;;;;0.40;0.23;;;12.50;99.90;;;;;;5102810;28;20611;-89
2020/12/22 05:56:43;;;;;;;1.23;0.80;;;12.50;99.90;;;;;;5094246;28;21204;-88
2020/12/22 05:59:19;;;;;;;0.60;0.30;;;12.50;99.90;;;;;;5099554;28;20623;-89
2020/12/22 06:01:48;;;;;;;0.70;0.47;;;12.50;99.90;;;;;;5096930;28;21152;-89
2020/12/22 06:04:17;;;;;;;2.50;0.40;;;12.50;99.90;;;;;;5103809;28;20632;-89
2020/12/22 06:06:46;;;;;;;0.87;0.87;;;12.60;99.90;;;;;;5103867;28;21573;-89
2020/12/22 06:09:13;;;;;;;0.57;0.37;;;12.60;99.90;;;;;;5102220;28;20623;-89
2020/12/22 06:11:40;;;;;;;0.50;0.40;;;12.70;99.90;;;;;;5084785;28;20591;-89
2020/12/22 06:14:07;;;;;;;0.50;0.37;;;12.70;99.90;;;;;;5089663;28;20651;-87
2020/12/22 06:16:33;;;;;;;0.40;0.30;;;12.70;99.90;;;;;;5083784;28;21257;-87
2020/12/22 06:19:01;;;;;;;0.57;0.50;;;12.70;99.90;;;;;;5081651;28;21178;-87
2020/12/22 06:21:28;;;;;;;0.80;0.50;;;12.70;99.90;;;;;;5085025;27;20668;-89
2020/12/22 06:23:56;;;;;;;0.80;0.60;;;12.80;99.90;;;;;;5092137;28;21248;-89
2020/12/22 06:26:22;;;;;;;1.33;0.40;;;12.80;99.90;;;;;;5089133;28;20608;-89
2020/12/22 06:28:49;;;;;;;1.90;0.40;;;12.80;99.90;;;;;;5085776;28;20721;-89
2020/12/22 06:31:20;;;;;;;0.50;0.30;;;12.80;99.90;;;;;;5097610;28;20704;-89
2020/12/22 06:33:49;;;;;;;0.50;0.40;;;12.70;99.90;;;;;;5073713;28;20730;-90
2020/12/22 06:36:17;;;;;;;0.50;0.40;;;12.80;99.90;;;;;;5093546;28;20623;-88
2020/12/22 06:38:47;;;;;;;3.43;0.70;;;12.80;99.90;;;;;;5079257;28;20655;-89
2020/12/22 06:41:26;;;;;;;1.43;0.60;;;12.80;99.90;;;;;;5085228;28;20639;-88
2020/12/22 06:43:54;;;;;;;0.50;0.40;;;12.80;99.90;;;;;;5083780;28;20818;-89
2020/12/22 06:46:45;;;;;;;0.50;0.30;;;12.80;99.90;;;;;;5088097;28;20680;-88
2020/12/22 06:49:13;;;;;;;1.33;0.50;;;12.70;99.90;;;;;;5074264;28;20635;-88
2020/12/22 06:51:41;;;;;;;0.53;0.30;;;12.80;99.90;;;;;;5078633;28;20629;-88
2020/12/22 06:54:32;;;;;;;1.10;0.40;;;12.80;99.90;;;;;;5077906;28;20986;-88
2020/12/22 06:56:59;;;;;;;0.50;0.37;;;12.90;99.90;;;;;;5083289;28;20692;-86
2020/12/22 06:59:55;;;;;;;1.17;1.07;;;12.90;99.90;;;;;;5085731;28;20751;-87
2020/12/22 07:02:32;;;;;;;0.87;0.27;;;12.90;99.90;;;;;;5083642;28;20671;-87
2020/12/22 07:05:00;;;;;;;0.60;0.40;;;12.90;99.90;;;;;;5086779;28;20631;-89
2020/12/22 07:07:55;;;;;;;0.80;0.50;;;12.90;99.90;;;;;;5082378;28;21035;-89
2020/12/22 07:10:23;;;;;;;2.40;0.50;;;13.00;99.90;;;;;;5088654;28;20641;-89
2020/12/22 07:12:56;;;;;;;0.43;0.30;;;13.00;99.90;;;;;;5091203;28;20632;-88
2020/12/22 07:15:22;;;;;;;0.50;0.30;;;13.10;99.90;;;;;;5083165;28;20615;-89
2020/12/22 07:17:52;;;;;;;1.13;0.70;;;13.10;99.90;;;;;;5086909;28;20620;-87
2020/12/22 07:20:18;;;;;;;0.50;0.40;;;13.10;99.90;;;;;;5087452;28;20650;-90
2020/12/22 07:22:45;;;;;;;0.67;0.40;;;13.00;99.90;;;;;;5089514;28;20671;-89
2020/12/22 07:25:12;;;;;;;0.70;0.47;;;13.10;99.90;;;;;;5077736;28;20620;-89
2020/12/22 07:27:38;;;;;;;0.70;0.63;;;13.20;99.90;;;;;;5082248;28;20752;-89
2020/12/22 07:30:05;;;;;;;1.43;0.90;;;13.20;99.90;;;;;;5090574;28;20662;-89
2020/12/22 07:32:32;;;;;;;0.50;0.40;;;13.20;99.90;;;;;;5089795;28;20613;-89
2020/12/22 07:34:59;;;;;;;0.63;0.47;;;13.20;99.90;;;;;;5080872;28;20616;-87
2020/12/22 07:37:27;;;;;;;0.70;0.40;;;13.30;99.90;;;;;;5106563;28;20627;-89
2020/12/22 07:39:53;;;;;;;0.73;0.60;;;13.30;99.90;;;;;;5103210;28;20671;-88
2020/12/22 07:42:20;;;;;;;2.10;0.60;;;13.40;99.90;;;;;;5085557;28;20657;-87
2020/12/22 07:44:47;;;;;;;0.40;0.30;;;13.40;99.90;;;;;;5084500;28;20691;-88
2020/12/22 07:47:15;;;;;;;0.90;0.53;;;13.40;99.90;;;;;;5083397;28;20628;-88
2020/12/22 07:49:44;;;;;;;1.00;0.57;;;13.40;99.90;;;;;;5089097;28;21271;-87
2020/12/22 07:52:14;;;;;;;1.93;0.57;;;13.40;99.90;;;;;;5081409;28;21167;-88
2020/12/22 07:54:41;;;;;;;0.90;0.60;;;13.50;99.90;;;;;;5085674;28;20860;-87
2020/12/22 07:57:10;;;;;;;1.57;0.50;;;13.50;99.90;;;;;;5082950;28;20617;-89
2020/12/22 07:59:36;;;;;;;0.63;0.47;;;13.50;99.90;;;;;;5079726;28;20637;-88
2020/12/22 08:02:04;;;;;;;0.60;0.50;;;13.50;99.90;;;;;;5085076;28;20661;-88
2020/12/22 08:04:31;;;;;;;0.50;0.40;;;13.50;99.90;;;;;;5082557;28;20718;-87
2020/12/22 08:06:59;;;;;;;0.40;0.30;;;13.50;99.90;;;;;;5087096;28;20995;-89
2020/12/22 08:09:27;;;;;;;0.40;0.30;;;13.50;99.90;;;;;;5085253;28;20628;-89
2020/12/22 08:11:55;;;;;;;0.40;0.20;;;13.50;99.90;;;;;;5092851;28;21103;-88
2020/12/22 08:14:23;;;;;;;0.40;0.30;;;13.60;99.90;;;;;;5094645;28;22699;-88
2020/12/22 08:16:52;;;;;;;1.07;0.40;;;13.50;99.90;;;;;;5089713;28;21386;-88
2020/12/22 08:19:19;;;;;;;0.50;0.30;;;13.60;99.90;;;;;;5086585;28;20628;-87
2020/12/22 08:21:47;;;;;;;1.10;0.40;;;13.60;99.90;;;;;;5096673;28;20671;-88
2020/12/22 08:24:16;;;;;;;0.40;0.30;;;13.60;99.90;;;;;;5084903;28;20624;-87
2020/12/22 08:26:45;;;;;;;3.57;0.40;;;13.60;99.90;;;;;;5086227;28;21045;-88
2020/12/22 08:29:14;;;;;;;1.33;0.37;;;13.70;99.90;;;;;;5079488;28;21190;-87
2020/12/22 08:31:43;;;;;;;0.40;0.30;;;13.70;99.90;;;;;;5084432;28;20629;-89
2020/12/22 08:34:10;;;;;;;0.57;0.40;;;13.70;99.90;;;;;;5088617;28;20620;-89
2020/12/22 08:36:37;;;;;;;0.60;0.30;;;13.70;99.90;;;;;;5087865;28;20644;-89
2020/12/22 08:39:22;;;;;;;0.40;0.30;;;13.70;99.90;;;;;;5080826;28;20650;-88
2020/12/22 08:41:50;;;;;;;0.50;0.30;;;13.70;99.90;;;;;;5082556;28;20663;-89
2020/12/22 08:44:17;;;;;;;0.40;0.30;;;13.70;99.90;;;;;;5086232;27;20666;-88
2020/12/22 08:46:44;;;;;;;0.50;0.40;;;13.70;99.90;;;;;;5079656;28;20641;-90
2020/12/22 08:49:13;;;;;;;1.10;0.33;;;13.60;99.90;;;;;;5089799;28;21107;-89
2020/12/22 08:51:40;;;;;;;0.60;0.40;;;13.70;99.90;;;;;;5083760;28;21046;-90
2020/12/22 08:54:07;;;;;;;0.60;0.40;;;13.70;99.90;;;;;;5088881;28;20613;-89
2020/12/22 08:56:34;;;;;;;0.60;0.50;;;13.70;99.90;;;;;;5081226;28;20671;-89
2020/12/22 08:59:02;;;;;;;0.63;0.30;;;13.70;99.90;;;;;;5088905;28;20641;-89
2020/12/22 09:01:30;;;;;;;0.50;0.43;;;13.80;99.90;;;;;;5089908;28;20651;-89
2020/12/22 09:03:59;;;;;;;0.73;0.40;;;13.80;99.90;;;;;;5086460;28;20760;-89
2020/12/22 09:06:36;;;;;;;1.50;0.33;;;13.90;99.90;;;;;;5087224;28;20694;-90
2020/12/22 09:09:05;;;;;;;0.60;0.33;;;13.90;99.90;;;;;;5091132;28;20638;-89
2020/12/22 09:11:31;;;;;;;1.47;0.60;;;13.90;99.90;;;;;;5080662;28;20647;-90
2020/12/22 09:14:08;;;;;;;1.23;0.30;;;13.90;99.90;;;;;;5082532;28;20630;-90
2020/12/22 09:16:55;;;;;;;0.50;0.30;;;13.90;99.90;;;;;;5089976;28;20622;-90
2020/12/22 09:19:29;;;;;;;2.30;0.50;;;13.90;99.90;;;;;;5088700;28;20949;-89
2020/12/22 09:22:02;;;;;;;0.60;0.50;;;13.80;99.90;;;;;;5090532;28;21481;-89
2020/12/22 09:24:29;;;;;;;0.53;0.40;;;13.80;99.90;;;;;;5091840;28;20648;-88
2020/12/22 09:27:01;;;;;;;0.40;0.30;;;13.80;99.90;;;;;;5088439;28;20627;-90
2020/12/22 09:29:29;;;;;;;1.37;0.50;;;13.80;99.90;;;;;;5083543;28;20617;-88
2020/12/22 09:31:58;;;;;;;0.70;0.33;;;13.70;99.90;;;;;;5083046;28;20619;-89
2020/12/22 09:34:26;;;;;;;1.13;0.40;;;13.70;99.90;;;;;;5094227;28;20616;-90
2020/12/22 09:36:55;;;;;;;0.50;0.40;;;13.60;99.90;;;;;;5096042;28;20684;-89
2020/12/22 09:39:21;;;;;;;0.63;0.47;;;13.60;99.90;;;;;;5090774;28;20639;-94
2020/12/22 09:41:48;;;;;;;0.70;0.53;;;13.60;99.90;;;;;;5095795;28;20673;-92
2020/12/22 09:44:15;;;;;;;0.70;0.60;;;13.50;99.90;;;;;;5089314;28;20734;-90
2020/12/22 09:46:42;;;;;;;0.97;0.60;;;13.40;99.90;;;;;;5094621;28;20646;-90
2020/12/22 09:49:08;;;;;;;1.00;0.90;;;13.40;99.90;;;;;;5088285;28;20616;-90
2020/12/22 09:51:35;;;;;;;1.23;0.77;;;13.40;99.90;;;;;;5093385;28;20654;-90
2020/12/22 09:54:01;;;;;;;0.57;0.33;;;13.40;99.90;;;;;;5086803;28;21197;-92
2020/12/22 09:56:30;;;;;;;6.43;4.13;;;13.40;99.90;;;;;;5120359;28;20604;-94
2020/12/22 09:58:57;;;;;;;2.13;1.93;;;13.40;99.90;;;;;;5108848;28;20629;-94
2020/12/22 10:01:25;;;;;;;0.90;0.73;;;13.40;99.90;;;;;;5088257;28;21239;-92
2020/12/22 10:03:58;;;;;;;1.00;0.73;;;13.50;99.90;;;;;;5091283;28;20665;-89
2020/12/22 10:06:25;;;;;;;0.60;0.50;;;13.50;99.90;;;;;;5090235;28;20624;-89
2020/12/22 10:08:52;;;;;;;0.60;0.60;;;13.60;99.90;;;;;;5089156;28;20631;-89
2020/12/22 10:11:20;;;;;;;0.50;0.40;;;13.70;99.90;;;;;;5089954;28;21036;-90
2020/12/22 10:13:46;;;;;;;0.53;0.30;;;13.70;99.90;;;;;;5096692;28;20627;-89
2020/12/22 10:16:14;;;;;;;1.20;0.67;;;13.70;99.90;;;;;;5109897;28;20646;-89
2020/12/22 10:18:41;;;;;;;1.07;0.70;;;13.70;99.90;;;;;;5104202;28;20637;-88
2020/12/22 10:21:10;;;;;;;3.10;0.40;;;13.80;99.90;;;;;;5111887;28;20647;-89
2020/12/22 10:23:37;;;;;;;0.93;0.60;;;13.90;99.90;;;;;;5113223;28;20729;-89
2020/12/22 10:26:07;;;;;;;0.50;0.40;;;13.90;99.90;;;;;;5109881;28;20653;-89
2020/12/22 10:28:36;;;;;;;0.60;0.37;;;13.90;99.90;;;;;;5104883;28;20629;-87
2020/12/22 10:31:05;;;;;;;0.60;0.40;;;14.00;99.90;;;;;;5098807;28;20658;-90
2020/12/22 10:33:32;;;;;;;0.90;0.60;;;14.00;99.90;;;;;;5107452;28;20868;-89
2020/12/22 10:35:58;;;;;;;1.23;0.63;;;14.10;99.90;;;;;;5105039;28;21169;-88
2020/12/22 10:38:25;;;;;;;0.60;0.50;;;14.10;99.90;;;;;;5083553;28;20617;-89
2020/12/22 10:40:52;;;;;;;0.60;0.53;;;14.10;99.90;;;;;;5092189;28;20668;-91
2020/12/22 10:43:18;;;;;;;0.60;0.40;;;14.10;99.90;;;;;;5095810;28;20760;-91
2020/12/22 10:45:44;;;;;;;1.10;0.57;;;14.00;99.90;;;;;;5092246;28;21203;-91
2020/12/22 10:48:12;;;;;;;0.80;0.70;;;14.10;99.90;;;;;;5093735;28;20628;-90
2020/12/22 10:50:39;;;;;;;1.40;1.20;;;14.10;99.90;;;;;;5092900;28;20639;-88
2020/12/22 10:53:06;;;;;;;1.17;0.90;;;14.10;99.90;;;;;;5084848;28;20622;-88
2020/12/22 10:55:33;;;;;;;1.07;0.80;;;14.10;99.90;;;;;;5096335;28;20641;-89
2020/12/22 10:58:00;;;;;;;0.80;0.80;;;14.10;99.90;;;;;;5093097;28;21041;-88
2020/12/22 11:00:27;;;;;;;0.50;0.30;;;14.10;99.90;;;;;;5096809;28;20631;-89
2020/12/22 11:02:54;;;;;;;0.63;0.47;;;14.10;99.90;;;;;;5080723;28;20662;-87
2020/12/22 11:08:04;;;;;;;0.50;0.40;;;14.10;99.90;;;;;;5093200;28;20630;-88
2020/12/22 11:10:31;;;;;;;1.23;0.50;;;14.10;99.90;;;;;;5082044;28;20641;-87
2020/12/22 11:12:58;;;;;;;0.47;0.40;;;14.10;99.90;;;;;;5081340;28;20629;-89
2020/12/22 11:15:24;;;;;;;0.97;0.50;;;14.20;99.90;;;;;;5092738;28;20659;-92
2020/12/22 11:17:51;;;;;;;1.13;0.37;;;14.30;99.90;;;;;;5110091;28;20731;-92
2020/12/22 11:20:17;;;;;;;0.83;0.47;;;14.20;99.90;;;;;;5101367;28;20677;-92
2020/12/22 11:22:44;;;;;;;0.90;0.40;;;14.20;99.90;;;;;;5103296;28;20706;-92
2020/12/22 11:25:10;;;;;;;0.40;0.30;;;14.20;99.90;;;;;;5102317;28;20687;-92
2020/12/22 11:27:37;;;;;;;2.10;0.60;;;14.20;99.90;;;;;;5099002;28;20637;-93
2020/12/22 11:30:05;;;;;;;0.77;0.63;;;14.10;99.90;;;;;;5104176;28;20737;-95
2020/12/22 11:32:32;;;;;;;0.50;0.50;;;14.20;99.90;;;;;;5109621;28;20625;-92
2020/12/22 11:34:58;;;;;;;0.50;0.30;;;14.10;99.90;;;;;;5095686;28;20748;-91
2020/12/22 11:37:26;;;;;;;0.40;0.40;;;14.20;99.90;;;;;;5106911;28;20636;-91
2020/12/22 11:39:54;;;;;;;2.07;0.30;;;14.20;99.90;;;;;;5111821;28;20655;-91
2020/12/22 11:42:21;;;;;;;0.90;0.30;;;14.20;99.90;;;;;;5103621;28;20705;-91
2020/12/22 11:44:48;;;;;;;0.47;0.30;;;14.10;99.90;;;;;;5093926;28;20987;-91
2020/12/22 11:47:16;;;;;;;0.90;0.70;;;14.10;99.90;;;;;;5087309;28;20690;-91
2020/12/22 11:49:43;;;;;;;0.63;0.60;;;14.20;99.90;;;;;;5090639;28;20742;-91
2020/12/22 11:52:10;;;;;;;0.60;0.40;;;14.20;99.90;;;;;;5092314;28;20644;-92
2020/12/22 11:54:37;;;;;;;0.70;0.50;;;14.20;99.90;;;;;;5089518;28;20633;-92
2020/12/22 11:57:06;;;;;;;0.40;0.33;;;14.10;99.90;;;;;;5095463;28;20650;-92
2020/12/22 11:59:35;;;;;;;0.80;0.50;;;14.20;99.90;;;;;;5072561;28;20632;-91
2020/12/22 12:02:04;;;;;;;0.60;0.40;;;14.20;99.90;;;;;;5096096;28;20990;-92
2020/12/22 12:04:33;;;;;;;0.70;0.50;;;14.20;99.90;;;;;;5084097;28;21181;-92
2020/12/22 12:06:59;;;;;;;0.60;0.53;;;14.20;99.90;;;;;;5090283;28;21143;-92
2020/12/22 12:09:26;;;;;;;0.70;0.50;;;14.30;99.90;;;;;;5086944;28;20652;-92
2020/12/22 12:11:53;;;;;;;1.37;0.40;;;14.30;99.90;;;;;;5119709;28;20612;-92
2020/12/22 12:14:20;;;;;;;1.73;0.40;;;14.40;99.90;;;;;;5101257;28;20618;-93
2020/12/22 12:16:48;;;;;;;0.50;0.30;;;14.50;99.90;;;;;;5088674;28;20619;-93
2020/12/22 12:19:14;;;;;;;0.57;0.40;;;14.60;99.90;;;;;;5081180;28;20671;-92
2020/12/22 12:21:44;;;;;;;1.23;0.60;;;14.70;99.90;;;;;;5084903;28;20633;-92
2020/12/22 12:24:17;;;;;;;0.50;0.30;;;14.80;99.90;;;;;;5079428;28;20599;-94
2020/12/22 12:26:44;;;;;;;1.30;0.67;;;15.00;99.90;;;;;;5081655;28;20628;-93
2020/12/22 12:29:10;;;;;;;0.50;0.40;;;15.10;99.90;;;;;;5079145;28;20724;-93
2020/12/22 12:31:37;;;;;;;0.93;0.43;;;15.20;99.90;;;;;;5096353;28;20677;-93
2020/12/22 12:34:03;;;;;;;0.57;0.40;;;15.10;99.90;;;;;;5094540;28;21223;-93
2020/12/22 12:36:30;;;;;;;0.53;0.43;;;15.20;99.90;;;;;;5085450;28;20633;-93
2020/12/22 12:39:00;;;;;;;0.70;0.40;;;15.10;99.90;;;;;;5087857;28;20764;-94
2020/12/22 12:41:28;;;;;;;0.80;0.70;;;15.10;99.90;;;;;;5094658;28;20649;-93
2020/12/22 12:43:55;;;;;;;0.60;0.40;;;15.10;99.90;;;;;;5096163;28;20673;-96
2020/12/22 12:46:22;;;;;;;0.57;0.40;;;15.00;99.90;;;;;;5082729;28;20639;-94
2020/12/22 12:48:50;;;;;;;0.60;0.43;;;14.80;99.90;;;;;;5112721;28;20727;-96
2020/12/22 13:11:23;;;;;;;1.37;0.60;;;14.40;99.90;;;;;;5110428;28;20608;-94
2020/12/22 13:13:54;;;;;;;0.50;0.40;;;14.40;99.90;;;;;;5106743;28;20621;-95